Time;durP1;ratioP1;P1;durP2;ratioP2;P2;SDS_P1;SDS_P2;PMS_P1;PMS_P2;Temp;Humidity;BMP_temperature;BMP_pressure;BME280_temperature;BME280_humidity;BME280_pressure;Samples;Min_cycle;Max_cycle;Signal;HPM_P1;HPM_P2
2022/09/16 00:00:18;;;;;;;7.18;1.30;;;;;;;10.35;93.74;100166.94;5017789;28;20179;-48
2022/09/16 00:02:43;;;;;;;6.85;1.05;;;;;;;10.24;92.93;100165.59;5017129;28;20187;-48
2022/09/16 00:05:08;;;;;;;2.95;1.00;;;;;;;10.29;92.90;100168.94;5019873;28;20223;-52
2022/09/16 00:07:34;;;;;;;3.53;0.80;;;;;;;10.34;92.39;100162.50;5013119;28;20207;-49
2022/09/16 00:10:00;;;;;;;4.10;0.90;;;;;;;10.12;92.82;100168.84;5015232;28;20275;-47
2022/09/16 00:12:26;;;;;;;5.72;0.95;;;;;;;10.01;93.32;100163.13;5018895;28;20196;-49
2022/09/16 00:14:54;;;;;;;6.57;0.80;;;;;;;10.03;93.51;100164.78;5019488;28;20568;-51
2022/09/16 00:17:21;;;;;;;5.70;1.08;;;;;;;10.09;93.44;100167.19;5018196;28;20222;-49
2022/09/16 00:19:48;;;;;;;5.05;1.10;;;;;;;9.97;93.63;100161.53;5018732;28;20712;-47
2022/09/16 00:22:13;;;;;;;5.68;0.88;;;;;;;9.97;93.98;100164.22;5019441;28;20711;-48
2022/09/16 00:24:39;;;;;;;2.53;0.75;;;;;;;9.99;93.95;100170.34;5014445;28;20260;-50
2022/09/16 00:27:04;;;;;;;4.85;0.90;;;;;;;9.87;94.18;100169.13;5016893;28;20202;-49
2022/09/16 00:29:30;;;;;;;4.70;0.95;;;;;;;9.95;94.60;100163.41;5018358;28;20230;-51
2022/09/16 00:31:55;;;;;;;9.88;1.05;;;;;;;9.92;94.77;100169.78;5017776;28;20192;-47
2022/09/16 00:34:21;;;;;;;7.38;1.30;;;;;;;9.85;94.82;100163.84;5012931;28;20567;-50
2022/09/16 00:36:46;;;;;;;5.35;0.93;;;;;;;9.95;95.16;100161.63;5021391;28;20256;-48
2022/09/16 00:39:12;;;;;;;6.50;1.25;;;;;;;9.90;95.39;100159.16;5020003;28;20287;-52
2022/09/16 00:41:38;;;;;;;7.40;0.82;;;;;;;9.86;95.58;100159.34;5022766;28;20635;-52
2022/09/16 00:44:26;;;;;;;6.03;1.40;;;;;;;9.84;95.85;100161.25;5016755;28;20206;-48
2022/09/16 00:46:53;;;;;;;4.30;1.08;;;;;;;9.73;96.07;100156.41;5017399;28;20566;-49
2022/09/16 00:49:28;;;;;;;9.02;1.00;;;;;;;9.78;96.59;100164.22;5017737;28;20266;-51
2022/09/16 00:52:02;;;;;;;5.15;0.98;;;;;;;9.79;96.54;100157.91;5019212;28;20208;-49
2022/09/16 00:54:29;;;;;;;6.05;0.90;;;;;;;9.82;96.81;100160.47;5030958;28;20554;-48
2022/09/16 00:56:58;;;;;;;6.53;1.30;;;;;;;9.75;96.91;100167.00;5019246;28;20188;-51
2022/09/16 00:59:37;;;;;;;7.47;1.20;;;;;;;9.79;96.91;100164.13;5023950;28;20208;-49
2022/09/16 01:02:10;;;;;;;8.23;1.13;;;;;;;9.72;97.46;100164.47;5024689;28;20228;-53
2022/09/16 01:04:42;;;;;;;8.38;1.10;;;;;;;9.78;97.47;100169.56;5018846;28;20216;-52
2022/09/16 01:07:08;;;;;;;5.55;1.23;;;;;;;9.68;97.83;100172.63;5019838;28;20184;-49
2022/09/16 01:09:34;;;;;;;6.55;1.30;;;;;;;9.70;97.83;100161.88;5019549;28;20612;-53
2022/09/16 01:11:59;;;;;;;6.95;1.30;;;;;;;9.69;98.08;100170.84;5022314;28;20736;-52
2022/09/16 01:17:22;;;;;;;3.90;1.13;;;;;;;9.66;98.80;100168.28;5019852;28;20196;-49
2022/09/16 01:20:25;;;;;;;5.05;1.10;;;;;;;9.61;98.65;100165.81;5010500;28;20176;-49
2022/09/16 01:23:09;;;;;;;7.57;1.20;;;;;;;9.64;98.99;100165.69;5009501;28;20188;-48
2022/09/16 01:25:40;;;;;;;8.15;1.13;;;;;;;9.64;99.03;100162.13;5016286;28;20184;-50
2022/09/16 01:28:47;;;;;;;5.30;1.02;;;;;;;9.62;99.19;100153.31;5021672;28;20703;-54
2022/09/16 01:31:16;;;;;;;4.25;0.90;;;;;;;9.72;99.35;100157.31;5001041;28;20581;-50
2022/09/16 01:34:24;;;;;;;7.60;1.70;;;;;;;9.68;99.25;100164.59;5017094;28;20556;-54
2022/09/16 01:37:13;;;;;;;5.68;1.17;;;;;;;9.58;99.33;100152.59;5020328;28;20189;-48
2022/09/16 01:39:59;;;;;;;4.43;1.00;;;;;;;9.58;99.94;100157.94;5020944;28;20523;-52
2022/09/16 01:42:42;;;;;;;8.68;1.30;;;;;;;9.53;100.00;100167.09;5019257;28;20180;-51
2022/09/16 01:45:26;;;;;;;7.63;1.27;;;;;;;9.53;100.00;100162.63;5021177;28;20239;-50
2022/09/16 01:48:12;;;;;;;6.72;1.17;;;;;;;9.52;100.00;100158.22;5017197;28;21238;-48
2022/09/16 01:50:47;;;;;;;7.03;1.00;;;;;;;9.52;100.00;100160.91;5020125;28;20238;-49
2022/09/16 01:53:25;;;;;;;7.22;1.33;;;;;;;9.52;100.00;100147.53;5022758;28;20175;-48
2022/09/16 01:56:01;;;;;;;5.10;1.00;;;;;;;9.55;100.00;100159.88;5026992;28;20192;-47
2022/09/16 01:58:33;;;;;;;8.13;1.40;;;;;;;9.54;100.00;100159.03;5019770;28;20208;-49
2022/09/16 02:01:05;;;;;;;5.38;1.13;;;;;;;9.58;100.00;100151.75;5025435;28;20197;-49
2022/09/16 02:03:38;;;;;;;8.68;1.55;;;;;;;9.60;100.00;100155.19;5015591;28;20546;-48
2022/09/16 02:06:16;;;;;;;11.38;1.42;;;;;;;9.61;100.00;100149.78;5019324;28;20180;-52
2022/09/16 02:09:12;;;;;;;8.68;1.40;;;;;;;9.53;100.00;100159.94;5026664;28;20215;-53
2022/09/16 02:11:40;;;;;;;11.45;1.92;;;;;;;9.56;100.00;100153.63;5019726;28;20788;-53
2022/09/16 02:14:12;;;;;;;8.55;1.10;;;;;;;9.65;99.93;100145.16;5018673;28;20445;-50
2022/09/16 02:16:44;;;;;;;17.90;1.65;;;;;;;9.59;99.70;100148.97;5018315;28;20211;-51
2022/09/16 02:19:23;;;;;;;8.32;1.35;;;;;;;9.59;99.45;100156.13;5019637;28;21083;-52
2022/09/16 02:21:51;;;;;;;11.93;2.22;;;;;;;9.68;99.22;100142.34;5022483;28;20187;-53
2022/09/16 02:24:20;;;;;;;7.43;1.30;;;;;;;9.75;98.67;100142.94;5021539;28;20660;-53
2022/09/16 02:26:50;;;;;;;13.45;2.15;;;;;;;9.87;98.03;100137.03;5017622;28;20735;-52
2022/09/16 02:29:20;;;;;;;7.80;1.48;;;;;;;9.89;97.38;100144.03;5021961;28;20212;-53
2022/09/16 02:31:49;;;;;;;8.50;1.75;;;;;;;9.94;96.72;100129.56;5014153;28;20729;-52
2022/09/16 02:34:20;;;;;;;8.57;1.73;;;;;;;10.04;96.08;100134.44;5019311;28;20191;-52
2022/09/16 02:36:51;;;;;;;5.65;1.20;;;;;;;9.95;95.98;100131.28;5021173;28;20180;-53
2022/09/16 02:39:21;;;;;;;8.98;1.25;;;;;;;9.88;95.70;100136.06;5018095;28;20199;-52
2022/09/16 02:41:48;;;;;;;11.50;1.70;;;;;;;9.84;95.91;100126.47;5015818;28;20266;-50
2022/09/16 02:44:14;;;;;;;12.45;2.05;;;;;;;9.88;95.96;100126.25;5019501;28;20195;-52
2022/09/16 02:46:48;;;;;;;7.97;1.73;;;;;;;9.84;96.22;100121.97;5019756;28;20208;-52
2022/09/16 02:49:33;;;;;;;10.43;1.50;;;;;;;9.81;96.79;100121.25;5022116;28;20219;-50
2022/09/16 02:52:10;;;;;;;8.85;2.30;;;;;;;9.72;96.72;100125.22;5027905;28;20246;-51
2022/09/16 02:54:51;;;;;;;14.30;2.10;;;;;;;9.83;96.94;100138.97;5016326;28;20268;-53
2022/09/16 02:57:16;;;;;;;10.75;1.60;;;;;;;9.86;96.82;100129.91;5020557;28;20194;-52
2022/09/16 02:59:43;;;;;;;10.00;2.00;;;;;;;9.89;96.93;100119.09;5020072;28;20181;-50
2022/09/16 03:02:08;;;;;;;12.77;2.08;;;;;;;9.82;97.63;100118.50;5018838;28;20588;-51
2022/09/16 03:04:34;;;;;;;8.68;1.95;;;;;;;9.85;97.98;100106.78;5020608;28;20208;-52
2022/09/16 03:07:03;;;;;;;10.75;2.38;;;;;;;9.78;98.30;100116.06;5016746;28;20184;-53
2022/09/16 03:09:28;;;;;;;8.85;1.90;;;;;;;9.65;98.77;100118.41;5020690;28;20533;-51
2022/09/16 03:12:09;;;;;;;13.10;2.15;;;;;;;9.57;99.33;100121.44;5019682;28;20679;-51
2022/09/16 03:15:06;;;;;;;16.00;2.15;;;;;;;9.55;99.98;100117.94;5017067;28;20231;-52
2022/09/16 03:18:08;;;;;;;14.43;2.28;;;;;;;9.46;100.00;100108.53;5017775;28;20516;-52
2022/09/16 03:21:13;;;;;;;11.88;1.60;;;;;;;9.51;100.00;100110.16;5017341;28;20188;-51
2022/09/16 03:23:59;;;;;;;10.65;1.70;;;;;;;9.48;100.00;100108.47;5019914;28;20200;-52
2022/09/16 03:26:41;;;;;;;11.68;1.83;;;;;;;9.53;100.00;100106.47;5018993;28;20211;-52
2022/09/16 03:29:17;;;;;;;14.40;2.30;;;;;;;9.51;100.00;100105.69;5019054;28;20274;-53
2022/09/16 03:31:56;;;;;;;10.15;1.67;;;;;;;9.51;100.00;100102.13;5016841;28;20180;-53
2022/09/16 03:34:34;;;;;;;14.45;1.67;;;;;;;9.56;99.80;100100.13;5011019;28;20179;-54
2022/09/16 03:37:08;;;;;;;8.30;1.40;;;;;;;9.58;99.30;100096.44;5019606;28;20188;-52
2022/09/16 03:39:34;;;;;;;7.85;1.85;;;;;;;9.57;99.05;100096.50;5018623;28;20177;-52
2022/09/16 03:42:06;;;;;;;10.10;1.85;;;;;;;9.56;98.67;100089.44;5018332;28;20266;-53
2022/09/16 03:44:39;;;;;;;10.80;1.65;;;;;;;9.66;98.00;100093.41;5019211;28;20287;-53
2022/09/16 03:47:06;;;;;;;8.27;1.75;;;;;;;9.56;97.79;100090.28;5015672;28;20223;-53
2022/09/16 03:49:32;;;;;;;10.80;1.90;;;;;;;9.52;97.48;100090.50;5018963;28;20223;-53
2022/09/16 03:51:57;;;;;;;10.55;1.30;;;;;;;9.53;97.40;100093.09;5019106;28;20185;-52
2022/09/16 03:54:23;;;;;;;11.50;2.13;;;;;;;9.52;97.29;100091.38;5017903;28;20176;-52
2022/09/16 03:56:49;;;;;;;10.27;1.83;;;;;;;9.59;96.94;100095.50;5014049;28;20196;-53
2022/09/16 03:59:14;;;;;;;10.73;1.88;;;;;;;9.63;96.81;100096.22;5015305;28;20242;-52
2022/09/16 04:01:40;;;;;;;8.75;1.77;;;;;;;9.64;96.66;100090.81;5015788;28;20489;-51
2022/09/16 04:04:05;;;;;;;7.75;2.15;;;;;;;9.72;96.71;100087.75;5015903;28;20949;-51
2022/09/16 04:06:31;;;;;;;9.98;1.55;;;;;;;9.66;96.75;100093.41;5014301;28;20184;-53
2022/09/16 04:08:58;;;;;;;9.10;1.60;;;;;;;9.66;96.68;100088.03;5017506;28;20348;-53
2022/09/16 04:11:23;;;;;;;11.23;1.95;;;;;;;9.68;96.76;100083.50;5017472;28;20196;-52
2022/09/16 04:13:49;;;;;;;10.60;1.65;;;;;;;9.66;96.42;100086.25;5020708;28;20207;-53
2022/09/16 04:16:20;;;;;;;9.52;1.70;;;;;;;9.65;96.39;100081.84;5018507;28;20195;-52
2022/09/16 04:18:45;;;;;;;10.73;1.98;;;;;;;9.68;96.15;100083.50;5013687;28;20212;-53
2022/09/16 04:21:11;;;;;;;7.95;1.60;;;;;;;9.65;96.23;100084.50;5019228;28;20227;-53
2022/09/16 04:23:36;;;;;;;9.30;1.70;;;;;;;9.61;96.04;100082.06;5015638;28;20807;-50
2022/09/16 04:26:02;;;;;;;6.57;2.05;;;;;;;9.54;96.46;100086.81;5017636;28;20200;-51
2022/09/16 04:28:29;;;;;;;10.23;1.60;;;;;;;9.53;96.79;100086.88;5017397;28;20220;-52
2022/09/16 04:31:16;;;;;;;6.15;1.45;;;;;;;9.53;96.88;100078.84;5017278;28;20710;-51
2022/09/16 04:33:42;;;;;;;10.05;1.83;;;;;;;9.49;96.73;100080.81;5015324;28;20329;-52
2022/09/16 04:36:13;;;;;;;8.40;1.60;;;;;;;9.49;96.94;100076.34;5017278;28;20184;-51
2022/09/16 04:38:40;;;;;;;7.95;1.30;;;;;;;9.54;96.83;100069.91;5018076;28;20248;-53
2022/09/16 04:41:13;;;;;;;7.70;1.73;;;;;;;9.53;96.72;100073.50;5019677;28;20188;-51
2022/09/16 04:43:39;;;;;;;10.50;2.08;;;;;;;9.53;96.48;100070.84;5016881;28;20189;-51
2022/09/16 04:46:06;;;;;;;9.98;1.58;;;;;;;9.55;96.06;100058.25;5014131;28;20189;-52
2022/09/16 04:48:32;;;;;;;12.48;2.08;;;;;;;9.56;95.88;100062.69;5016770;28;20386;-51
2022/09/16 04:51:04;;;;;;;8.02;1.65;;;;;;;9.52;95.63;100058.41;5018711;28;20184;-52
2022/09/16 04:53:29;;;;;;;9.48;1.58;;;;;;;9.54;95.55;100053.88;5016735;28;20232;-52
2022/09/16 04:56:05;;;;;;;12.85;2.25;;;;;;;9.64;95.03;100055.16;5017768;28;20218;-52
2022/09/16 04:58:30;;;;;;;8.27;1.70;;;;;;;9.67;94.72;100065.72;5015759;28;20284;-51
2022/09/16 05:01:01;;;;;;;11.27;2.15;;;;;;;9.70;94.21;100054.88;5014682;28;20185;-53
2022/09/16 05:03:27;;;;;;;20.20;1.83;;;;;;;9.74;94.35;100056.47;5018264;28;20186;-52
2022/09/16 05:05:52;;;;;;;10.00;1.60;;;;;;;9.77;94.55;100050.09;5018629;28;20180;-51
2022/09/16 05:08:18;;;;;;;9.35;1.80;;;;;;;9.72;94.49;100050.31;5015242;28;20289;-52
2022/09/16 05:10:43;;;;;;;8.45;1.60;;;;;;;9.71;94.68;100061.97;5016945;28;20211;-51
2022/09/16 05:13:09;;;;;;;5.95;1.40;;;;;;;9.71;94.64;100059.31;5011809;28;20690;-50
2022/09/16 05:15:34;;;;;;;9.45;1.73;;;;;;;9.72;94.64;100063.69;5020801;28;20190;-51
2022/09/16 05:17:59;;;;;;;8.00;1.55;;;;;;;9.69;94.38;100055.81;5016181;28;20204;-52
2022/09/16 05:20:25;;;;;;;8.77;1.95;;;;;;;9.73;94.63;100054.75;5018027;28;20260;-51
2022/09/16 05:22:51;;;;;;;9.00;1.73;;;;;;;9.76;94.58;100059.94;5015060;28;20713;-51
2022/09/16 05:25:16;;;;;;;8.57;1.60;;;;;;;9.82;94.46;100054.31;5012388;28;20200;-52
2022/09/16 05:27:42;;;;;;;9.20;1.70;;;;;;;9.81;94.20;100057.91;5011520;28;20311;-47
2022/09/16 05:30:09;;;;;;;13.25;2.05;;;;;;;9.86;93.88;100055.00;5027022;28;20219;-47
2022/09/16 05:32:34;;;;;;;10.30;1.88;;;;;;;9.85;93.46;100055.97;5009947;28;20631;-51
2022/09/16 05:35:00;;;;;;;10.77;1.85;;;;;;;9.86;92.69;100045.19;5013378;28;20231;-49
2022/09/16 05:37:25;;;;;;;8.75;1.77;;;;;;;9.96;92.09;100058.97;5014136;28;20618;-50
2022/09/16 05:39:51;;;;;;;14.13;2.10;;;;;;;9.97;91.82;100049.13;5017213;28;20227;-50
2022/09/16 05:42:16;;;;;;;10.32;1.85;;;;;;;10.01;91.61;100045.38;5015615;28;20204;-50
2022/09/16 05:44:42;;;;;;;8.18;1.70;;;;;;;10.10;91.56;100039.56;5019187;28;20214;-50
2022/09/16 05:47:07;;;;;;;10.10;1.50;;;;;;;10.38;90.63;100041.78;5010026;28;20196;-51
2022/09/16 05:49:33;;;;;;;8.77;1.60;;;;;;;10.58;90.32;100047.94;5013955;28;20602;-50
2022/09/16 05:51:58;;;;;;;4.35;1.33;;;;;;;10.68;89.69;100039.38;5014386;28;20204;-50
2022/09/16 05:54:24;;;;;;;7.75;1.83;;;;;;;11.02;89.03;100039.41;5018017;28;20184;-51
2022/09/16 05:56:50;;;;;;;9.98;1.55;;;;;;;10.78;88.80;100046.91;5008457;28;20185;-48
2022/09/16 05:59:16;;;;;;;6.55;1.27;;;;;;;10.82;88.81;100044.03;5016820;28;20200;-51
2022/09/16 06:01:42;;;;;;;10.35;1.63;;;;;;;10.60;89.06;100046.91;5012977;28;20184;-51
2022/09/16 06:04:10;;;;;;;7.78;1.85;;;;;;;10.67;89.26;100044.78;5014206;28;20184;-50
2022/09/16 06:06:38;;;;;;;6.38;1.80;;;;;;;10.57;89.35;100047.09;5017409;28;20560;-51
2022/09/16 06:09:07;;;;;;;6.97;1.52;;;;;;;10.63;89.45;100043.25;5015528;28;20310;-49
2022/09/16 06:11:38;;;;;;;9.75;2.10;;;;;;;10.55;89.82;100035.59;5019424;28;20671;-49
2022/09/16 06:14:05;;;;;;;9.02;1.70;;;;;;;10.60;90.13;100035.34;5016918;28;20616;-49
2022/09/16 06:16:31;;;;;;;11.07;1.80;;;;;;;10.71;90.47;100041.91;5019322;28;20184;-51
2022/09/16 06:18:58;;;;;;;11.43;1.85;;;;;;;10.82;90.43;100040.47;5021326;28;20212;-50
2022/09/16 06:21:24;;;;;;;16.77;2.40;;;;;;;11.08;90.32;100026.56;5023221;28;20609;-50
2022/09/16 06:23:50;;;;;;;10.10;1.80;;;;;;;11.44;89.24;100025.53;5019336;28;20185;-50
2022/09/16 06:26:18;;;;;;;9.95;2.00;;;;;;;11.65;88.47;100036.03;5018055;28;20208;-50
2022/09/16 06:28:44;;;;;;;8.85;1.83;;;;;;;11.45;88.31;100029.94;5012878;28;20315;-51
2022/09/16 06:31:20;;;;;;;9.05;1.70;;;;;;;11.28;88.36;100027.31;5014952;28;20371;-49
2022/09/16 06:33:46;;;;;;;7.65;1.67;;;;;;;11.16;89.17;100033.34;5022261;28;20757;-52
2022/09/16 06:36:21;;;;;;;6.72;1.50;;;;;;;11.18;89.11;100029.63;5012863;23;20505;-48
2022/09/16 06:38:48;;;;;;;11.60;2.22;;;;;;;11.08;89.67;100017.66;5020257;28;20245;-50
2022/09/16 06:41:15;;;;;;;7.95;2.22;;;;;;;11.06;90.14;100023.13;5027817;28;20605;-49
2022/09/16 06:43:41;;;;;;;11.35;2.28;;;;;;;11.13;90.10;100019.16;5023979;28;20184;-48
2022/09/16 06:46:12;;;;;;;11.52;2.33;;;;;;;11.01;90.34;100026.97;5019713;28;20180;-47
2022/09/16 06:48:42;;;;;;;11.68;1.58;;;;;;;11.03;90.52;100025.94;5024055;28;20693;-50
2022/09/16 06:51:10;;;;;;;10.90;1.58;;;;;;;11.04;90.74;100018.75;5013290;28;20199;-48
2022/09/16 06:53:36;;;;;;;15.23;2.35;;;;;;;10.98;91.03;100021.78;5023466;28;20180;-51
2022/09/16 06:56:04;;;;;;;12.18;1.90;;;;;;;11.09;91.39;100014.03;5023584;28;20195;-49
2022/09/16 06:58:34;;;;;;;5.85;1.20;;;;;;;11.23;91.48;100006.09;5018789;28;20247;-49
2022/09/16 07:01:28;;;;;;;7.65;1.60;;;;;;;11.22;91.29;100009.75;5025525;28;20184;-49
2022/09/16 07:03:56;;;;;;;8.73;1.83;;;;;;;11.16;91.63;100011.91;5020330;28;20219;-51
2022/09/16 07:06:26;;;;;;;6.38;1.23;;;;;;;11.15;91.78;100011.03;5023886;28;20215;-47
2022/09/16 07:08:53;;;;;;;6.68;1.20;;;;;;;11.30;91.89;100015.56;5021158;28;20273;-51
2022/09/16 07:11:21;;;;;;;6.15;1.40;;;;;;;11.52;91.56;100015.25;5025477;28;20187;-50
2022/09/16 07:13:48;;;;;;;4.63;1.40;;;;;;;11.46;91.17;100012.91;5017801;28;20656;-48
2022/09/16 07:16:19;;;;;;;10.10;1.50;;;;;;;11.85;90.82;100014.31;5018463;28;20220;-47
2022/09/16 07:18:45;;;;;;;7.07;1.30;;;;;;;12.00;89.91;100004.53;5024759;28;20212;-52
2022/09/16 07:21:17;;;;;;;7.78;1.30;;;;;;;12.04;89.30;99991.81;5022077;28;20234;-49
2022/09/16 07:23:43;;;;;;;5.93;1.30;;;;;;;11.98;89.32;99995.69;5011994;28;20208;-54
2022/09/16 07:26:13;;;;;;;9.38;1.60;;;;;;;11.93;89.59;99990.59;5017188;28;20208;-52
2022/09/16 07:28:40;;;;;;;9.77;1.95;;;;;;;11.94;90.04;99991.50;5019896;28;20624;-51
2022/09/16 07:31:11;;;;;;;8.35;1.67;;;;;;;12.07;89.59;99984.47;5025572;28;20614;-47
2022/09/16 07:33:39;;;;;;;9.90;2.67;;;;;;;12.40;89.08;99983.44;5018000;28;20192;-47
2022/09/16 07:36:06;;;;;;;7.57;1.58;;;;;;;12.46;88.53;99995.63;5017641;28;20216;-49
2022/09/16 07:38:32;;;;;;;8.48;1.48;;;;;;;12.39;89.03;99994.25;5021353;28;20243;-48
2022/09/16 07:41:12;;;;;;;6.82;2.08;;;;;;;12.44;89.37;99993.03;5001890;28;20215;-47
2022/09/16 07:43:39;;;;;;;7.43;1.58;;;;;;;12.37;88.86;99994.34;5024501;28;20194;-49
2022/09/16 07:46:05;;;;;;;12.00;2.17;;;;;;;12.44;88.48;99990.34;5021150;28;20678;-48
2022/09/16 07:48:32;;;;;;;9.27;1.95;;;;;;;12.31;88.99;99994.69;5017034;28;20327;-49
2022/09/16 07:51:19;;;;;;;7.57;1.63;;;;;;;12.49;89.54;99998.13;5021022;28;20196;-51
2022/09/16 07:53:45;;;;;;;9.63;1.48;;;;;;;12.59;89.27;100002.00;5017231;28;20200;-46
2022/09/16 07:56:16;;;;;;;8.18;1.40;;;;;;;12.63;89.05;100000.84;5020881;28;20180;-48
2022/09/16 07:58:44;;;;;;;8.45;1.42;;;;;;;13.07;88.44;99999.97;5022846;28;20254;-53
2022/09/16 08:01:10;;;;;;;8.98;1.70;;;;;;;13.22;87.62;100000.84;5023770;28;20181;-48
2022/09/16 08:03:38;;;;;;;11.18;2.25;;;;;;;13.86;85.60;99985.09;5022642;28;20573;-50
2022/09/16 08:06:10;;;;;;;7.47;1.65;;;;;;;13.65;85.31;99986.53;5018342;28;20191;-47
2022/09/16 08:08:36;;;;;;;12.30;2.22;;;;;;;13.04;86.01;100002.84;5021180;28;20212;-52
2022/09/16 08:11:02;;;;;;;10.43;2.17;;;;;;;12.92;86.41;99988.34;5017381;28;20191;-50
2022/09/16 08:13:30;;;;;;;6.93;1.65;;;;;;;13.16;86.01;99994.03;5022142;28;20267;-48
2022/09/16 08:16:19;;;;;;;11.75;1.90;;;;;;;13.19;86.57;99999.22;5020650;28;20215;-49
2022/09/16 08:18:47;;;;;;;9.45;1.77;;;;;;;12.96;86.24;100005.13;5018928;28;20710;-50
2022/09/16 08:21:22;;;;;;;6.68;1.67;;;;;;;13.35;85.05;99988.38;5014320;28;20326;-47
2022/09/16 08:23:48;;;;;;;9.00;1.77;;;;;;;13.92;83.96;99990.09;5021665;28;20234;-49
2022/09/16 08:26:15;;;;;;;8.98;1.90;;;;;;;14.49;82.17;99985.44;5024789;28;20184;-47
2022/09/16 08:28:43;;;;;;;9.27;2.15;;;;;;;14.45;80.86;99990.16;5022411;28;20323;-49
2022/09/16 08:31:08;;;;;;;11.05;2.17;;;;;;;14.51;80.34;99981.66;5014232;28;20188;-48
2022/09/16 08:33:34;;;;;;;12.00;2.65;;;;;;;14.56;80.05;99982.28;5016687;28;20187;-49
2022/09/16 08:36:19;;;;;;;10.40;1.77;;;;;;;14.09;79.61;99974.66;5015270;28;20638;-49
2022/09/16 08:38:47;;;;;;;7.63;2.10;;;;;;;13.95;80.62;99989.91;5012585;28;20220;-49
2022/09/16 08:41:30;;;;;;;11.30;2.10;;;;;;;13.87;81.31;99976.09;5011045;28;20179;-49
2022/09/16 08:44:31;;;;;;;5.88;1.70;;;;;;;13.52;81.63;99990.00;5014965;28;20691;-50
2022/09/16 08:47:05;;;;;;;13.43;1.85;;;;;;;13.39;83.57;99995.28;5009185;28;20579;-48
2022/09/16 08:49:41;;;;;;;8.80;1.70;;;;;;;13.20;84.94;99986.63;5017641;28;20200;-49
2022/09/16 08:52:33;;;;;;;12.15;2.10;;;;;;;12.86;86.87;100001.31;5016168;28;20192;-49
2022/09/16 08:55:05;;;;;;;11.32;1.92;;;;;;;12.92;89.12;99984.78;5011895;28;20203;-50
2022/09/16 08:57:37;;;;;;;6.13;1.48;;;;;;;12.69;90.58;99995.13;5021486;28;20539;-50
2022/09/16 09:00:14;;;;;;;12.77;2.13;;;;;;;12.63;91.38;99992.78;5016839;28;20271;-50
2022/09/16 09:02:57;;;;;;;13.55;2.22;;;;;;;12.35;93.92;99989.09;5018592;28;20188;-50
2022/09/16 09:05:54;;;;;;;8.48;1.58;;;;;;;12.26;96.01;99984.22;5006964;28;20774;-49
2022/09/16 09:08:42;;;;;;;9.73;1.77;;;;;;;12.57;96.83;99980.59;5012931;28;20219;-50
2022/09/16 09:11:40;;;;;;;8.50;1.80;;;;;;;12.88;97.17;99977.84;5011863;28;20187;-49
2022/09/16 09:14:26;;;;;;;8.82;1.92;;;;;;;13.18;95.98;99975.09;5017580;28;20662;-47
2022/09/16 09:17:13;;;;;;;11.50;2.20;;;;;;;13.34;93.37;99969.66;5034133;28;20196;-48
2022/09/16 09:20:04;;;;;;;16.55;2.40;;;;;;;13.26;92.21;99963.84;5017451;28;20191;-48
2022/09/16 09:23:08;;;;;;;10.60;2.40;;;;;;;13.23;91.04;99972.09;5019436;28;20615;-48
2022/09/16 09:25:36;;;;;;;12.70;2.17;;;;;;;13.16;89.20;99968.94;4994915;28;20197;-50
2022/09/16 09:28:22;;;;;;;11.40;2.75;;;;;;;13.33;88.31;99954.47;5024034;28;20543;-51
2022/09/16 09:30:53;;;;;;;12.40;2.05;;;;;;;13.32;87.80;99953.59;5015339;28;20206;-49
2022/09/16 09:33:39;;;;;;;12.05;1.90;;;;;;;13.16;88.15;99959.06;5019081;28;20192;-47
2022/09/16 09:36:30;;;;;;;15.20;2.35;;;;;;;13.05;88.67;99961.53;5018042;28;21019;-49
2022/09/16 09:39:12;;;;;;;14.07;2.00;;;;;;;13.01;89.14;99972.59;5015325;28;20207;-49
2022/09/16 09:41:42;;;;;;;15.60;2.53;;;;;;;12.93;90.29;99960.47;5020669;28;20187;-49
2022/09/16 09:44:25;;;;;;;16.05;2.58;;;;;;;12.83;91.54;99955.78;5017204;28;20204;-52
2022/09/16 09:46:59;;;;;;;9.38;2.30;;;;;;;12.69;93.02;99965.53;5011573;28;20181;-47
2022/09/16 09:49:37;;;;;;;12.38;2.70;;;;;;;12.78;93.88;99973.03;5011561;28;20208;-51
2022/09/16 09:52:03;;;;;;;13.85;2.92;;;;;;;12.72;94.29;99976.09;5036795;28;20197;-48
2022/09/16 09:54:40;;;;;;;14.63;2.63;;;;;;;12.59;96.01;99961.69;5019810;28;20993;-51
2022/09/16 09:57:28;;;;;;;14.73;2.80;;;;;;;12.62;97.68;99958.81;5015716;28;20180;-48
2022/09/16 10:00:13;;;;;;;9.30;2.90;;;;;;;12.40;98.74;99950.31;4999890;28;20238;-46
2022/09/16 10:02:40;;;;;;;10.02;2.05;;;;;;;12.47;98.99;99939.13;5021891;28;20219;-52
2022/09/16 10:05:27;;;;;;;13.80;2.53;;;;;;;12.88;98.88;99948.28;5019240;28;20310;-48
2022/09/16 10:08:08;;;;;;;17.80;3.33;;;;;;;13.56;98.12;99936.84;5023884;28;20208;-51
2022/09/16 10:10:47;;;;;;;14.75;3.03;;;;;;;13.93;96.20;99919.13;5022376;28;20243;-50
2022/09/16 10:13:13;;;;;;;15.00;3.08;;;;;;;14.39;93.77;99925.94;5016059;28;20189;-49
2022/09/16 10:15:39;;;;;;;15.73;2.55;;;;;;;14.81;90.42;99930.19;5020919;28;20185;-48
2022/09/16 10:18:31;;;;;;;8.35;1.88;;;;;;;14.74;87.79;99920.81;5019220;28;20629;-49
2022/09/16 10:21:11;;;;;;;9.20;2.00;;;;;;;14.73;85.09;99926.31;5018461;28;20275;-49
2022/09/16 10:23:38;;;;;;;10.00;1.95;;;;;;;14.79;84.88;99920.50;5022515;28;20674;-48
2022/09/16 10:26:25;;;;;;;13.13;2.10;;;;;;;14.75;83.87;99903.66;5020839;28;20199;-49
2022/09/16 10:28:56;;;;;;;11.85;2.70;;;;;;;14.77;83.30;99908.94;5018453;28;20588;-50
2022/09/16 10:31:24;;;;;;;9.80;2.15;;;;;;;15.05;82.94;99910.56;5023593;28;20540;-51
2022/09/16 10:33:50;;;;;;;13.20;2.08;;;;;;;15.12;82.10;99903.72;5018968;28;20212;-47
2022/09/16 10:36:21;;;;;;;10.80;2.22;;;;;;;15.04;81.23;99909.69;5018730;28;20728;-47
2022/09/16 10:38:53;;;;;;;8.77;2.00;;;;;;;15.16;81.06;99894.44;5020233;28;20291;-49
2022/09/16 10:41:24;;;;;;;15.73;2.40;;;;;;;15.81;79.47;99882.50;5017877;28;20662;-48
2022/09/16 10:44:06;;;;;;;8.20;2.10;;;;;;;15.37;78.29;99892.03;5020434;28;20188;-49
2022/09/16 10:46:32;;;;;;;10.35;1.73;;;;;;;15.11;77.36;99883.13;5020138;28;20193;-48
2022/09/16 10:49:07;;;;;;;8.45;1.95;;;;;;;15.08;77.94;99895.97;5017182;28;20219;-48
2022/09/16 10:51:33;;;;;;;8.07;1.55;;;;;;;14.78;78.78;99911.53;5016855;28;20545;-50
2022/09/16 10:54:02;;;;;;;8.40;1.45;;;;;;;14.58;79.58;99903.97;5023128;28;20188;-52
2022/09/16 10:56:30;;;;;;;10.48;1.67;;;;;;;14.62;79.56;99900.94;5025643;28;20219;-48
2022/09/16 10:59:08;;;;;;;6.70;1.13;;;;;;;14.26;82.10;99925.06;5024467;28;20205;-49
2022/09/16 11:02:06;;;;;;;5.07;0.93;;;;;;;13.41;88.40;99929.78;5020885;28;20192;-49
2022/09/16 11:04:47;;;;;;;6.45;1.20;;;;;;;13.28;91.13;99932.34;5014653;28;20201;-49
2022/09/16 11:07:21;;;;;;;5.13;1.17;;;;;;;13.43;92.22;99912.56;5016117;28;20313;-49
2022/09/16 11:10:13;;;;;;;7.68;1.00;;;;;;;13.74;92.08;99894.41;5011589;28;20286;-50
2022/09/16 11:13:09;;;;;;;9.95;1.58;;;;;;;13.96;91.51;99900.06;5011586;28;20557;-50
2022/09/16 11:15:35;;;;;;;7.80;1.42;;;;;;;13.69;90.15;99891.16;5012816;28;20286;-50
2022/09/16 11:18:26;;;;;;;3.80;0.90;;;;;;;13.70;90.02;99884.78;5014149;28;20208;-51
2022/09/16 11:21:13;;;;;;;6.93;1.35;;;;;;;14.08;89.59;99866.06;5014020;28;20268;-51
2022/09/16 11:24:11;;;;;;;6.95;1.20;;;;;;;13.78;88.40;99880.63;5011486;28;20606;-50
2022/09/16 11:26:51;;;;;;;4.88;1.08;;;;;;;13.70;87.66;99895.56;4999809;28;20288;-50
2022/09/16 11:29:28;;;;;;;3.30;0.63;;;;;;;13.51;87.57;99901.28;5018416;28;20211;-50
2022/09/16 11:32:04;;;;;;;4.90;0.95;;;;;;;13.90;86.40;99895.09;5016319;28;20282;-50
2022/09/16 11:34:57;;;;;;;3.65;0.73;;;;;;;14.14;86.08;99889.88;5015061;28;20188;-50
2022/09/16 11:37:22;;;;;;;3.38;0.90;;;;;;;14.42;85.85;99875.34;5014970;28;20287;-50
2022/09/16 11:40:18;;;;;;;4.18;0.77;;;;;;;14.72;85.32;99882.31;5014410;28;20272;-50
2022/09/16 11:43:08;;;;;;;5.85;0.85;;;;;;;14.72;84.05;99871.53;5019196;28;20529;-51
2022/09/16 11:45:52;;;;;;;3.88;0.75;;;;;;;14.91;83.25;99862.13;5026182;28;20189;-50
2022/09/16 11:48:46;;;;;;;4.22;0.70;;;;;;;14.90;83.11;99868.50;5016806;28;20776;-50
2022/09/16 11:51:25;;;;;;;3.05;0.90;;;;;;;14.94;82.97;99870.00;5013521;28;20203;-49
2022/09/16 11:54:04;;;;;;;3.20;0.73;;;;;;;15.12;83.73;99865.97;5014865;28;20263;-49
2022/09/16 11:56:50;;;;;;;4.57;1.10;;;;;;;15.15;83.71;99862.16;5021667;28;20270;-50
2022/09/16 11:59:39;;;;;;;6.13;1.08;;;;;;;15.31;84.18;99852.00;5018674;28;20275;-50